createdAt,value
2023-05-05T00:01:06.279Z,0.20
2023-05-05T00:03:33.608Z,0.30
2023-05-05T00:06:00.549Z,0.65
2023-05-05T00:08:27.089Z,0.40
2023-05-05T00:10:53.825Z,0.60
2023-05-05T00:13:20.909Z,0.30
2023-05-05T00:15:48.883Z,0.70
2023-05-05T00:18:16.352Z,0.40
2023-05-05T00:20:43.283Z,0.40
2023-05-05T00:23:09.836Z,0.60
2023-05-05T00:25:36.220Z,0.40
2023-05-05T00:28:02.607Z,0.50
2023-05-05T00:30:29.044Z,0.50
2023-05-05T00:32:55.620Z,0.57
2023-05-05T00:35:22.022Z,0.40
2023-05-05T00:37:49.143Z,0.35
2023-05-05T00:40:15.961Z,0.30
2023-05-05T00:42:43.950Z,0.30
2023-05-05T00:45:10.994Z,0.20
2023-05-05T00:47:37.715Z,0.30
2023-05-05T00:50:06.534Z,0.30
2023-05-05T00:52:33.107Z,0.30
2023-05-05T00:54:59.585Z,0.30
2023-05-05T00:57:26.031Z,0.20
2023-05-05T00:59:53.035Z,0.10
2023-05-05T01:02:19.525Z,0.30
2023-05-05T01:04:45.894Z,0.20
2023-05-05T01:07:28.968Z,0.30
2023-05-05T01:10:20.141Z,0.20
2023-05-05T01:12:56.608Z,0.22
2023-05-05T01:15:29.538Z,0.17
2023-05-05T01:17:59.680Z,0.10
2023-05-05T01:20:30.206Z,0.20
2023-05-05T01:23:01.337Z,0.20
2023-05-05T01:25:30.792Z,0.10
2023-05-05T01:27:59.976Z,0.20
2023-05-05T01:30:49.737Z,0.30
2023-05-05T01:33:18.722Z,0.20
2023-05-05T01:35:47.175Z,0.20
2023-05-05T01:38:17.823Z,0.20
2023-05-05T01:40:48.864Z,0.28
2023-05-05T01:43:17.735Z,0.10
2023-05-05T01:45:45.029Z,0.30
2023-05-05T01:48:12.667Z,0.20
2023-05-05T01:50:41.685Z,0.30
2023-05-05T01:53:09.711Z,0.10
2023-05-05T01:55:37.124Z,0.10
2023-05-05T01:58:04.268Z,0.10
2023-05-05T02:00:31.215Z,0.20
2023-05-05T02:02:59.870Z,0.60
2023-05-05T02:05:26.618Z,0.60
2023-05-05T02:07:54.357Z,1.10
2023-05-05T02:10:21.020Z,0.70
2023-05-05T02:12:47.584Z,0.45
2023-05-05T02:15:15.140Z,0.70
2023-05-05T02:17:42.776Z,0.40
2023-05-05T02:20:10.773Z,0.43
2023-05-05T02:22:37.160Z,0.50
2023-05-05T02:25:03.809Z,1.05
2023-05-05T02:27:31.323Z,1.20
2023-05-05T02:29:58.901Z,2.45
2023-05-05T02:32:34.234Z,1.60
2023-05-05T02:35:12.458Z,1.02
2023-05-05T02:37:39.412Z,1.00
2023-05-05T02:40:07.646Z,1.50
2023-05-05T02:42:46.438Z,1.45
2023-05-05T02:45:15.120Z,2.15
2023-05-05T02:47:41.498Z,1.35
2023-05-05T02:50:08.938Z,1.00
2023-05-05T02:52:35.880Z,0.85
2023-05-05T02:55:03.225Z,0.60
2023-05-05T02:57:38.096Z,1.30
2023-05-05T03:00:10.511Z,0.95
2023-05-05T03:02:42.683Z,1.40
2023-05-05T03:05:10.985Z,0.90
2023-05-05T03:07:39.214Z,0.80
2023-05-05T03:10:06.121Z,1.33
2023-05-05T03:12:46.049Z,1.77
2023-05-05T03:15:13.590Z,1.60
2023-05-05T03:17:41.600Z,1.20
2023-05-05T03:20:08.691Z,1.00
2023-05-05T03:22:35.859Z,0.80
2023-05-05T03:25:02.249Z,0.90
2023-05-05T03:27:28.635Z,0.60
2023-05-05T03:29:55.205Z,0.90
2023-05-05T03:32:23.559Z,0.60
2023-05-05T03:34:50.182Z,0.70
2023-05-05T03:37:16.754Z,0.40
2023-05-05T03:39:43.136Z,0.45
2023-05-05T03:42:09.526Z,0.45
2023-05-05T03:44:35.900Z,0.47
2023-05-05T03:47:02.184Z,0.57
2023-05-05T03:49:28.496Z,1.40
2023-05-05T03:51:54.991Z,1.33
2023-05-05T03:54:21.301Z,0.90
2023-05-05T03:56:47.646Z,0.90
2023-05-05T03:59:14.077Z,0.70
2023-05-05T04:01:40.539Z,0.40
2023-05-05T04:04:06.965Z,0.80
2023-05-05T04:06:33.427Z,0.80
2023-05-05T04:08:59.888Z,0.80
2023-05-05T04:11:26.283Z,1.02
2023-05-05T04:13:52.669Z,1.00
2023-05-05T04:16:19.722Z,0.90
2023-05-05T04:18:46.103Z,0.80
2023-05-05T04:21:12.521Z,0.50
2023-05-05T04:23:38.883Z,0.40
2023-05-05T04:26:05.297Z,0.32
2023-05-05T04:28:31.689Z,0.30
2023-05-05T04:30:59.499Z,0.30
2023-05-05T04:33:26.084Z,0.20
2023-05-05T04:35:52.567Z,0.20
2023-05-05T04:38:20.795Z,0.20
2023-05-05T04:40:47.142Z,0.20
2023-05-05T04:43:13.514Z,0.10
2023-05-05T04:45:39.912Z,0.20
2023-05-05T04:48:06.449Z,0.20
2023-05-05T04:50:32.865Z,0.10
2023-05-05T04:52:59.204Z,0.17
2023-05-05T04:55:25.577Z,0.20
2023-05-05T04:57:51.991Z,0.20
2023-05-05T05:00:18.645Z,0.30
2023-05-05T05:02:45.069Z,0.20
2023-05-05T05:05:11.462Z,0.30
2023-05-05T05:07:37.984Z,0.20
2023-05-05T05:10:04.552Z,0.10
2023-05-05T05:12:31.139Z,0.20
2023-05-05T05:14:57.719Z,0.30
2023-05-05T05:17:24.904Z,0.20
2023-05-05T05:19:51.464Z,0.10
2023-05-05T05:22:17.834Z,0.00
2023-05-05T05:24:44.181Z,0.10
2023-05-05T05:27:10.629Z,0.10
2023-05-05T05:29:37.048Z,0.30
2023-05-05T05:32:03.690Z,0.40
2023-05-05T05:34:30.095Z,0.82
2023-05-05T05:36:56.504Z,0.90
2023-05-05T05:39:23.304Z,0.70
2023-05-05T05:41:49.685Z,1.40
2023-05-05T05:44:15.992Z,1.15
2023-05-05T05:46:42.554Z,0.90
2023-05-05T05:49:09.066Z,0.90
2023-05-05T05:51:35.600Z,1.10
2023-05-05T05:54:02.185Z,0.82
2023-05-05T05:56:29.191Z,0.40
2023-05-05T05:58:56.231Z,0.40
2023-05-05T06:01:22.562Z,0.38
2023-05-05T06:03:48.984Z,0.40
2023-05-05T06:06:15.445Z,0.20
2023-05-05T06:08:41.970Z,0.40
2023-05-05T06:11:08.332Z,0.40
2023-05-05T06:13:34.720Z,0.60
2023-05-05T06:16:01.437Z,0.80
2023-05-05T06:18:27.978Z,1.20
2023-05-05T06:20:54.364Z,1.10
2023-05-05T06:23:20.932Z,0.70
2023-05-05T06:25:47.674Z,0.77
2023-05-05T06:28:14.071Z,0.70
2023-05-05T06:30:40.433Z,1.27
2023-05-05T06:33:06.828Z,1.52
2023-05-05T06:35:33.399Z,1.08
2023-05-05T06:37:59.745Z,1.67
2023-05-05T06:40:26.268Z,1.10
2023-05-05T06:42:52.574Z,0.90
2023-05-05T06:45:19.017Z,0.70
2023-05-05T06:47:45.473Z,0.80
2023-05-05T06:50:11.888Z,0.95
2023-05-05T06:52:38.404Z,0.45
2023-05-05T06:55:04.873Z,0.50
2023-05-05T06:57:31.244Z,0.50
2023-05-05T06:59:57.695Z,0.65
2023-05-05T07:02:26.589Z,0.60
2023-05-05T07:04:55.356Z,1.00
2023-05-05T07:07:22.060Z,1.25
2023-05-05T07:09:48.505Z,0.88
2023-05-05T07:12:14.855Z,0.60
2023-05-05T07:14:41.311Z,0.60
2023-05-05T07:17:07.618Z,0.82
2023-05-05T07:19:33.933Z,0.70
2023-05-05T07:22:00.464Z,0.70
2023-05-05T07:24:26.796Z,0.68
2023-05-05T07:26:53.194Z,1.05
2023-05-05T07:29:19.610Z,0.90
2023-05-05T07:31:46.391Z,0.70
2023-05-05T07:34:12.803Z,0.60
2023-05-05T07:36:39.300Z,1.10
2023-05-05T07:39:05.685Z,1.40
2023-05-05T07:41:31.986Z,0.70
2023-05-05T07:43:58.412Z,0.70
2023-05-05T07:46:24.929Z,0.88
2023-05-05T07:48:51.648Z,0.50
2023-05-05T07:51:18.041Z,0.38
2023-05-05T07:53:44.632Z,0.50
2023-05-05T07:56:10.961Z,0.70
2023-05-05T07:58:37.289Z,0.80
2023-05-05T08:01:06.464Z,1.10
2023-05-05T08:03:32.869Z,0.50
2023-05-05T08:06:05.785Z,0.40
2023-05-05T08:08:32.194Z,0.32
2023-05-05T08:10:58.536Z,0.43
2023-05-05T08:13:24.939Z,0.30
2023-05-05T08:15:52.278Z,0.20
2023-05-05T08:18:18.703Z,0.30
2023-05-05T08:20:45.187Z,0.20
2023-05-05T08:23:11.541Z,0.20
2023-05-05T08:25:37.892Z,0.30
2023-05-05T08:28:04.238Z,0.30
2023-05-05T08:30:30.673Z,0.50
2023-05-05T08:32:57.198Z,0.40
2023-05-05T08:35:23.778Z,1.00
2023-05-05T08:37:52.925Z,0.57
2023-05-05T08:40:20.979Z,0.80
2023-05-05T08:42:47.848Z,0.85
2023-05-05T08:45:14.627Z,0.70
2023-05-05T08:47:43.034Z,0.75
2023-05-05T08:50:10.315Z,0.60
2023-05-05T08:52:44.543Z,0.30
2023-05-05T08:55:18.122Z,0.60
2023-05-05T08:57:48.856Z,1.00
2023-05-05T09:00:17.794Z,1.17
2023-05-05T09:02:44.845Z,1.20
2023-05-05T09:05:11.628Z,1.30
2023-05-05T09:07:38.992Z,1.52
2023-05-05T09:10:05.818Z,0.93
2023-05-05T09:12:32.627Z,0.52
2023-05-05T09:14:59.477Z,1.10
2023-05-05T09:17:26.566Z,1.00
2023-05-05T09:20:04.270Z,1.10
2023-05-05T09:22:34.836Z,1.50
2023-05-05T09:25:01.316Z,1.23
2023-05-05T09:27:27.675Z,1.00
2023-05-05T09:29:54.866Z,1.77
2023-05-05T09:32:21.528Z,1.70
2023-05-05T09:35:01.293Z,1.13
2023-05-05T09:37:31.546Z,1.00
2023-05-05T09:39:59.197Z,0.95
2023-05-05T09:42:25.629Z,1.00
2023-05-05T09:44:52.146Z,0.70
2023-05-05T09:47:29.588Z,0.47
2023-05-05T09:49:57.676Z,0.40
2023-05-05T09:52:24.174Z,0.40
2023-05-05T09:54:54.568Z,0.47
2023-05-05T09:57:28.181Z,0.40
2023-05-05T09:59:56.423Z,0.75
2023-05-05T10:02:29.693Z,0.60
2023-05-05T10:05:04.948Z,0.43
2023-05-05T10:07:31.320Z,1.20
2023-05-05T10:09:57.648Z,0.80
2023-05-05T10:12:25.358Z,1.00
2023-05-05T10:14:52.830Z,0.80
2023-05-05T10:17:21.177Z,0.80
2023-05-05T10:19:48.357Z,1.10
2023-05-05T10:22:14.834Z,0.88
2023-05-05T10:24:50.273Z,0.88
2023-05-05T10:27:19.369Z,0.95
2023-05-05T10:29:52.743Z,0.90
2023-05-05T10:32:46.991Z,0.60
2023-05-05T10:35:15.902Z,0.85
2023-05-05T10:37:42.578Z,0.60
2023-05-05T10:40:10.770Z,0.40
2023-05-05T10:42:38.669Z,0.47
2023-05-05T10:45:05.587Z,0.50
2023-05-05T10:47:32.937Z,0.60
2023-05-05T10:50:07.457Z,0.30
2023-05-05T10:52:37.929Z,0.80
2023-05-05T10:55:13.522Z,0.70
2023-05-05T10:57:41.229Z,1.23
2023-05-05T11:00:08.757Z,0.65
2023-05-05T11:02:36.220Z,0.80
2023-05-05T11:05:18.097Z,0.90
2023-05-05T11:07:46.079Z,0.60
2023-05-05T11:10:13.424Z,0.85
2023-05-05T11:12:52.262Z,0.60
2023-05-05T11:15:27.771Z,0.75
2023-05-05T11:18:06.990Z,0.43
2023-05-05T11:20:37.530Z,0.35
2023-05-05T11:23:04.101Z,0.50
2023-05-05T11:25:37.840Z,0.40
2023-05-05T11:28:05.347Z,0.52
2023-05-05T11:30:31.817Z,0.75
2023-05-05T11:33:17.023Z,0.70
2023-05-05T11:35:59.481Z,0.32
2023-05-05T11:38:44.631Z,0.70
2023-05-05T11:41:30.220Z,0.40
2023-05-05T11:44:11.941Z,0.70
2023-05-05T11:46:53.234Z,0.30
2023-05-05T11:49:36.084Z,0.20
2023-05-05T11:52:03.488Z,0.45
2023-05-05T11:54:30.076Z,0.35
2023-05-05T11:56:57.832Z,0.47
2023-05-05T11:59:24.512Z,0.30
2023-05-05T12:01:51.046Z,0.32
2023-05-05T12:04:18.043Z,0.40
2023-05-05T12:06:45.394Z,0.30
2023-05-05T12:09:22.155Z,0.28
2023-05-05T12:11:58.541Z,0.32
2023-05-05T12:14:25.434Z,0.30
2023-05-05T12:16:56.064Z,0.43
2023-05-05T12:19:22.631Z,0.30
2023-05-05T12:21:49.169Z,0.20
2023-05-05T12:24:15.838Z,0.30
2023-05-05T12:26:42.202Z,0.20
2023-05-05T12:29:08.608Z,0.60
2023-05-05T12:31:36.054Z,0.40
2023-05-05T12:34:03.194Z,0.63
2023-05-05T12:36:30.804Z,0.40
2023-05-05T12:38:58.069Z,0.60
2023-05-05T12:41:24.536Z,0.40
2023-05-05T12:43:57.771Z,0.30
2023-05-05T12:46:24.440Z,0.30
2023-05-05T12:49:07.046Z,0.40
2023-05-05T12:51:34.136Z,0.30
2023-05-05T12:54:21.102Z,0.50
2023-05-05T12:56:48.013Z,0.30
2023-05-05T12:59:24.046Z,0.40
2023-05-05T13:01:51.635Z,0.30
2023-05-05T13:04:19.154Z,0.30
2023-05-05T13:06:46.486Z,0.32
2023-05-05T13:09:23.002Z,0.40
2023-05-05T13:11:49.488Z,0.30
2023-05-05T13:14:16.057Z,0.55
2023-05-05T13:16:42.409Z,0.20
2023-05-05T13:19:08.809Z,0.30
2023-05-05T13:21:35.354Z,0.10
2023-05-05T13:24:19.812Z,0.25
2023-05-05T13:26:48.571Z,0.22
2023-05-05T13:29:16.404Z,0.40
2023-05-05T13:31:43.119Z,0.28
2023-05-05T13:34:09.658Z,0.30
2023-05-05T13:36:36.065Z,0.20
2023-05-05T13:39:02.424Z,0.30
2023-05-05T13:41:28.747Z,0.43
2023-05-05T13:43:55.063Z,0.57
2023-05-05T13:46:21.432Z,0.60
2023-05-05T13:48:47.944Z,0.30
2023-05-05T13:51:15.878Z,0.38
2023-05-05T13:53:44.007Z,0.50
2023-05-05T13:56:10.853Z,0.38
2023-05-05T13:58:37.902Z,0.60
2023-05-05T14:01:04.585Z,0.40
2023-05-05T14:03:31.370Z,0.35
2023-05-05T14:05:57.796Z,0.85
2023-05-05T14:08:24.279Z,0.73
2023-05-05T14:10:52.074Z,1.00
2023-05-05T14:13:18.760Z,0.50
2023-05-05T14:15:45.367Z,0.70
2023-05-05T14:18:11.935Z,0.40
2023-05-05T14:20:38.375Z,0.60
2023-05-05T14:23:04.672Z,0.50
2023-05-05T14:25:31.210Z,0.60
2023-05-05T14:27:57.782Z,0.45
2023-05-05T14:30:24.300Z,0.80
2023-05-05T14:32:50.724Z,0.20
2023-05-05T14:35:17.259Z,0.50
2023-05-05T14:37:43.578Z,0.43
2023-05-05T14:40:10.210Z,0.30
2023-05-05T14:42:37.626Z,0.40
2023-05-05T14:45:05.607Z,0.50
2023-05-05T14:47:33.609Z,0.40
2023-05-05T14:50:00.260Z,0.25
2023-05-05T14:52:26.829Z,0.20
2023-05-05T14:54:53.152Z,0.30
2023-05-05T14:57:19.487Z,0.40
2023-05-05T14:59:46.044Z,0.50
2023-05-05T15:02:12.401Z,0.57
2023-05-05T15:04:38.756Z,0.70
2023-05-05T15:07:05.159Z,0.50
2023-05-05T15:09:31.532Z,0.30
2023-05-05T15:11:57.835Z,0.25
2023-05-05T15:14:24.257Z,0.10
2023-05-05T15:16:50.598Z,0.30
2023-05-05T15:19:16.964Z,0.30
2023-05-05T15:21:43.406Z,0.20
2023-05-05T15:24:09.749Z,0.40
2023-05-05T15:26:36.102Z,0.40
2023-05-05T15:29:02.432Z,0.40
2023-05-05T15:31:28.761Z,0.30
2023-05-05T15:33:55.047Z,0.30
2023-05-05T15:36:22.689Z,0.50
2023-05-05T15:38:49.297Z,0.50
2023-05-05T15:41:15.806Z,0.20
2023-05-05T15:43:42.206Z,0.30
2023-05-05T15:46:08.565Z,0.20
2023-05-05T15:48:35.714Z,0.30
2023-05-05T15:51:02.384Z,0.20
2023-05-05T15:53:28.833Z,0.30
2023-05-05T15:55:55.229Z,0.40
2023-05-05T15:58:21.636Z,0.30
2023-05-05T16:00:47.968Z,0.20
2023-05-05T16:03:14.486Z,0.28
2023-05-05T16:05:41.745Z,0.40
2023-05-05T16:08:10.376Z,0.50
2023-05-05T16:10:37.484Z,0.60
2023-05-05T16:13:04.073Z,0.70
2023-05-05T16:15:30.444Z,0.50
2023-05-05T16:17:56.792Z,0.40
2023-05-05T16:20:23.265Z,0.57
2023-05-05T16:22:49.623Z,0.40
2023-05-05T16:25:18.429Z,0.40
2023-05-05T16:27:44.783Z,0.60
2023-05-05T16:30:12.799Z,0.60
2023-05-05T16:32:39.205Z,0.30
2023-05-05T16:35:07.239Z,0.60
2023-05-05T16:37:33.790Z,0.40
2023-05-05T16:40:01.364Z,0.57
2023-05-05T16:42:27.738Z,0.50
2023-05-05T16:44:54.084Z,0.45
2023-05-05T16:47:20.697Z,0.45
2023-05-05T16:49:47.215Z,0.40
2023-05-05T16:52:14.251Z,0.40
2023-05-05T16:54:41.732Z,0.35
2023-05-05T16:57:08.110Z,0.30
2023-05-05T16:59:34.527Z,0.38
2023-05-05T17:02:01.178Z,0.40
2023-05-05T17:04:27.617Z,0.30
2023-05-05T17:06:54.947Z,0.43
2023-05-05T17:09:24.917Z,0.52
2023-05-05T17:11:54.215Z,0.30
2023-05-05T17:14:20.710Z,0.20
2023-05-05T17:16:47.057Z,0.95
2023-05-05T17:19:13.423Z,0.10
2023-05-05T17:21:39.850Z,0.30
2023-05-05T17:24:06.482Z,0.30
2023-05-05T17:26:32.917Z,0.30
2023-05-05T17:28:59.235Z,0.20
2023-05-05T17:31:26.071Z,0.43
2023-05-05T17:33:52.454Z,0.10
2023-05-05T17:36:18.797Z,0.40
2023-05-05T17:38:45.246Z,0.10
2023-05-05T17:41:11.562Z,0.00
2023-05-05T17:43:37.851Z,0.10
2023-05-05T17:46:04.383Z,0.38
2023-05-05T17:48:30.792Z,0.10
2023-05-05T17:50:57.144Z,0.30
2023-05-05T17:53:23.638Z,0.40
2023-05-05T17:55:49.947Z,0.30
2023-05-05T17:58:16.274Z,0.77
2023-05-05T18:00:42.603Z,0.70
2023-05-05T18:03:09.062Z,0.40
2023-05-05T18:05:35.598Z,0.30
2023-05-05T18:08:02.422Z,0.30
2023-05-05T18:10:28.763Z,0.30
2023-05-05T18:12:55.360Z,0.10
2023-05-05T18:15:21.835Z,0.22
2023-05-05T18:17:48.182Z,0.13
2023-05-05T18:20:14.619Z,0.10
2023-05-05T18:22:41.313Z,0.30
2023-05-05T18:25:08.404Z,0.20
2023-05-05T18:27:35.976Z,0.20
2023-05-05T18:30:02.401Z,0.20
2023-05-05T18:32:28.744Z,0.10
2023-05-05T18:34:55.254Z,0.10
2023-05-05T18:37:21.711Z,0.10
2023-05-05T18:39:48.293Z,0.17
2023-05-05T18:42:14.606Z,0.20
2023-05-05T18:44:41.660Z,0.20
2023-05-05T18:47:08.167Z,0.10
2023-05-05T18:49:34.633Z,0.20
2023-05-05T18:52:01.032Z,0.25
2023-05-05T18:54:27.456Z,0.20
2023-05-05T18:56:54.050Z,0.40
2023-05-05T18:59:20.903Z,0.30
2023-05-05T19:01:47.240Z,0.30
2023-05-05T19:04:26.559Z,0.30
2023-05-05T19:06:56.258Z,0.20
2023-05-05T19:09:22.659Z,0.28
2023-05-05T19:11:49.199Z,0.30
2023-05-05T19:14:16.356Z,0.30
2023-05-05T19:16:42.718Z,0.30
2023-05-05T19:19:10.771Z,0.40
2023-05-05T19:21:37.269Z,0.20
2023-05-05T19:24:03.710Z,0.50
2023-05-05T19:26:30.195Z,0.40
2023-05-05T19:28:56.587Z,0.50
2023-05-05T19:31:27.427Z,0.30
2023-05-05T19:33:59.255Z,0.30
2023-05-05T19:36:26.011Z,0.20
2023-05-05T19:38:52.402Z,0.35
2023-05-05T19:41:19.072Z,0.50
2023-05-05T19:43:46.342Z,0.20
2023-05-05T19:46:13.304Z,0.40
2023-05-05T19:48:39.826Z,0.32
2023-05-05T19:51:06.167Z,0.20
2023-05-05T19:53:32.475Z,0.10
2023-05-05T19:55:59.994Z,0.20
2023-05-05T19:58:26.344Z,0.20
2023-05-05T20:00:52.748Z,0.30
2023-05-05T20:03:19.430Z,0.30
2023-05-05T20:05:45.945Z,0.30
2023-05-05T20:08:12.325Z,0.10
2023-05-05T20:10:38.936Z,0.30
2023-05-05T20:13:05.437Z,0.20
2023-05-05T20:15:33.160Z,0.22
2023-05-05T20:17:59.811Z,0.10
2023-05-05T20:20:26.285Z,0.10
2023-05-05T20:22:53.010Z,0.20
2023-05-05T20:25:19.442Z,0.20
2023-05-05T20:27:46.027Z,0.10
2023-05-05T20:30:13.037Z,0.10
2023-05-05T20:32:39.907Z,0.20
2023-05-05T20:35:07.271Z,0.10
2023-05-05T20:37:33.665Z,0.10
2023-05-05T20:40:00.211Z,0.10
2023-05-05T20:42:27.737Z,0.20
2023-05-05T20:44:54.315Z,0.10
2023-05-05T20:47:20.848Z,0.10
2023-05-05T20:49:47.309Z,0.10
2023-05-05T20:52:13.723Z,0.10
2023-05-05T20:54:40.276Z,0.25
2023-05-05T20:57:07.110Z,0.20
2023-05-05T20:59:33.475Z,0.30
2023-05-05T21:02:00.011Z,0.10
2023-05-05T21:04:26.467Z,0.10
2023-05-05T21:06:52.968Z,0.10
2023-05-05T21:09:21.552Z,0.15
2023-05-05T21:11:48.708Z,0.10
2023-05-05T21:14:15.176Z,0.10
2023-05-05T21:16:42.494Z,0.10
2023-05-05T21:19:09.024Z,0.10
2023-05-05T21:21:35.552Z,0.10
2023-05-05T21:24:02.250Z,0.20
2023-05-05T21:26:28.743Z,0.10
2023-05-05T21:28:55.285Z,0.10
2023-05-05T21:31:22.812Z,0.10
2023-05-05T21:33:49.638Z,0.10
2023-05-05T21:36:17.618Z,0.10
2023-05-05T21:38:43.993Z,0.10
2023-05-05T21:41:10.491Z,0.10
2023-05-05T21:43:37.038Z,0.10
2023-05-05T21:46:04.578Z,0.10
2023-05-05T21:48:33.742Z,0.10
2023-05-05T21:51:00.369Z,0.10
2023-05-05T21:53:26.813Z,0.10
2023-05-05T21:55:53.408Z,0.10
2023-05-05T21:58:19.808Z,0.10
2023-05-05T22:00:49.487Z,0.20
2023-05-05T22:03:16.268Z,0.10
2023-05-05T22:05:42.770Z,0.10
2023-05-05T22:08:09.146Z,0.10
2023-05-05T22:10:35.674Z,0.10
2023-05-05T22:13:02.147Z,0.10
2023-05-05T22:15:32.831Z,0.10
2023-05-05T22:18:06.679Z,0.00
2023-05-05T22:20:33.285Z,0.10
2023-05-05T22:22:59.806Z,0.10
2023-05-05T22:25:26.409Z,0.05
2023-05-05T22:27:52.768Z,0.10
2023-05-05T22:30:19.316Z,0.10
2023-05-05T22:32:46.345Z,0.10
2023-05-05T22:35:13.229Z,0.10
2023-05-05T22:37:39.897Z,0.10
2023-05-05T22:40:09.562Z,0.10
2023-05-05T22:42:36.203Z,0.10
2023-05-05T22:45:02.580Z,0.10
2023-05-05T22:47:29.130Z,0.10
2023-05-05T22:49:55.654Z,0.10
2023-05-05T22:52:22.026Z,0.10
2023-05-05T22:54:48.474Z,0.10
2023-05-05T22:57:14.907Z,0.10
2023-05-05T22:59:41.458Z,0.10
2023-05-05T23:02:07.988Z,0.10
2023-05-05T23:04:34.422Z,0.10
2023-05-05T23:07:01.177Z,0.10
2023-05-05T23:09:27.510Z,0.10
2023-05-05T23:11:54.372Z,0.20
2023-05-05T23:14:20.711Z,0.10
2023-05-05T23:16:47.171Z,0.10
2023-05-05T23:19:13.900Z,0.17
2023-05-05T23:21:52.130Z,0.20
2023-05-05T23:24:19.526Z,0.20
2023-05-05T23:26:46.179Z,0.32
2023-05-05T23:29:12.550Z,0.20
2023-05-05T23:31:39.089Z,0.10
2023-05-05T23:34:05.497Z,0.13
2023-05-05T23:36:31.939Z,0.10
2023-05-05T23:38:58.566Z,0.10
2023-05-05T23:41:25.071Z,0.20
2023-05-05T23:43:51.438Z,0.30
2023-05-05T23:46:17.931Z,0.30
2023-05-05T23:48:44.412Z,0.30
2023-05-05T23:51:10.733Z,0.30
2023-05-05T23:53:37.131Z,0.30
2023-05-05T23:56:03.505Z,0.30
2023-05-05T23:58:30.000Z,0.20
